sensor_id;sensor_type;location;lat;lon;timestamp;temperature;humidity
54558;DHT22;40452;50.080;20.040;2023-01-15T06:55:25;20.50;43.20
54558;DHT22;40452;50.080;20.040;2023-01-15T06:57:52;20.50;43.60
54558;DHT22;40452;50.080;20.040;2023-01-15T07:00:17;20.60;43.50
54558;DHT22;40452;50.080;20.040;2023-01-15T07:02:50;20.70;43.40
54558;DHT22;40452;50.080;20.040;2023-01-15T07:05:16;20.80;42.60
54558;DHT22;40452;50.080;20.040;2023-01-15T07:07:41;20.80;42.90
54558;DHT22;40452;50.080;20.040;2023-01-15T07:10:07;20.90;42.70
54558;DHT22;40452;50.080;20.040;2023-01-15T07:12:34;21.00;42.20
54558;DHT22;40452;50.080;20.040;2023-01-15T07:14:59;21.00;42.20
54558;DHT22;40452;50.080;20.040;2023-01-15T07:17:25;21.10;42.30
54558;DHT22;40452;50.080;20.040;2023-01-15T07:19:50;21.10;42.30
54558;DHT22;40452;50.080;20.040;2023-01-15T07:22:16;21.10;42.20
54558;DHT22;40452;50.080;20.040;2023-01-15T07:24:49;21.10;42.20
54558;DHT22;40452;50.080;20.040;2023-01-15T07:27:17;21.20;42.30
54558;DHT22;40452;50.080;20.040;2023-01-15T07:29:42;21.20;42.40
54558;DHT22;40452;50.080;20.040;2023-01-15T07:32:09;21.20;42.60
54558;DHT22;40452;50.080;20.040;2023-01-15T07:34:35;21.20;42.70
54558;DHT22;40452;50.080;20.040;2023-01-15T07:37:00;21.20;42.80
54558;DHT22;40452;50.080;20.040;2023-01-15T07:39:26;21.20;42.90
54558;DHT22;40452;50.080;20.040;2023-01-15T07:41:52;21.20;42.90
54558;DHT22;40452;50.080;20.040;2023-01-15T07:44:36;21.20;42.90
54558;DHT22;40452;50.080;20.040;2023-01-15T07:47:22;21.20;42.90
54558;DHT22;40452;50.080;20.040;2023-01-15T07:50:15;21.20;42.90
54558;DHT22;40452;50.080;20.040;2023-01-15T07:52:41;21.20;42.80
54558;DHT22;40452;50.080;20.040;2023-01-15T07:55:06;21.30;43.00
54558;DHT22;40452;50.080;20.040;2023-01-15T07:57:34;21.30;43.10
54558;DHT22;40452;50.080;20.040;2023-01-15T08:00:00;21.30;43.10
54558;DHT22;40452;50.080;20.040;2023-01-15T08:02:28;21.30;43.10
54558;DHT22;40452;50.080;20.040;2023-01-15T08:04:53;21.30;43.00
54558;DHT22;40452;50.080;20.040;2023-01-15T08:07:19;21.30;42.90
54558;DHT22;40452;50.080;20.040;2023-01-15T08:09:44;21.40;42.80
54558;DHT22;40452;50.080;20.040;2023-01-15T08:12:10;21.50;42.70
54558;DHT22;40452;50.080;20.040;2023-01-15T08:14:55;21.60;42.40
54558;DHT22;40452;50.080;20.040;2023-01-15T08:17:44;21.80;42.30
54558;DHT22;40452;50.080;20.040;2023-01-15T08:20:11;21.90;42.30
54558;DHT22;40452;50.080;20.040;2023-01-15T08:22:37;22.00;41.90
54558;DHT22;40452;50.080;20.040;2023-01-15T08:25:04;22.00;41.90
54558;DHT22;40452;50.080;20.040;2023-01-15T08:27:30;22.10;41.70
54558;DHT22;40452;50.080;20.040;2023-01-15T08:29:56;22.20;41.70
54558;DHT22;40452;50.080;20.040;2023-01-15T08:32:22;22.20;42.00
54558;DHT22;40452;50.080;20.040;2023-01-15T08:34:48;22.30;41.80
54558;DHT22;40452;50.080;20.040;2023-01-15T08:37:14;22.30;41.70
54558;DHT22;40452;50.080;20.040;2023-01-15T08:39:39;22.40;41.40
54558;DHT22;40452;50.080;20.040;2023-01-15T08:42:05;22.40;40.70
54558;DHT22;40452;50.080;20.040;2023-01-15T08:44:30;22.40;40.40
54558;DHT22;40452;50.080;20.040;2023-01-15T08:46:56;22.30;40.80
54558;DHT22;40452;50.080;20.040;2023-01-15T08:49:22;22.30;40.80
54558;DHT22;40452;50.080;20.040;2023-01-15T08:51:49;22.30;40.60
54558;DHT22;40452;50.080;20.040;2023-01-15T08:54:21;22.30;40.00
54558;DHT22;40452;50.080;20.040;2023-01-15T08:56:48;22.30;40.80
54558;DHT22;40452;50.080;20.040;2023-01-15T08:59:14;22.30;40.90
54558;DHT22;40452;50.080;20.040;2023-01-15T09:01:43;22.20;40.80
54558;DHT22;40452;50.080;20.040;2023-01-15T09:04:17;22.20;40.80
54558;DHT22;40452;50.080;20.040;2023-01-15T09:06:45;22.20;40.70
54558;DHT22;40452;50.080;20.040;2023-01-15T09:09:11;22.20;40.60
54558;DHT22;40452;50.080;20.040;2023-01-15T09:11:37;22.20;40.60
54558;DHT22;40452;50.080;20.040;2023-01-15T09:14:11;22.30;40.70
54558;DHT22;40452;50.080;20.040;2023-01-15T09:16:37;22.20;40.70
54558;DHT22;40452;50.080;20.040;2023-01-15T09:19:05;22.20;40.40
54558;DHT22;40452;50.080;20.040;2023-01-15T09:21:31;22.30;40.50
54558;DHT22;40452;50.080;20.040;2023-01-15T09:23:57;22.20;40.40
54558;DHT22;40452;50.080;20.040;2023-01-15T09:26:37;22.30;40.40
54558;DHT22;40452;50.080;20.040;2023-01-15T09:29:04;22.30;40.70
54558;DHT22;40452;50.080;20.040;2023-01-15T09:31:31;22.30;40.70
54558;DHT22;40452;50.080;20.040;2023-01-15T09:33:57;22.30;40.60
54558;DHT22;40452;50.080;20.040;2023-01-15T09:36:32;22.30;40.50
54558;DHT22;40452;50.080;20.040;2023-01-15T09:39:10;22.20;40.40
54558;DHT22;40452;50.080;20.040;2023-01-15T09:55:27;22.30;40.40
54558;DHT22;40452;50.080;20.040;2023-01-15T09:58:00;22.20;40.40
54558;DHT22;40452;50.080;20.040;2023-01-15T10:00:34;22.20;40.40
54558;DHT22;40452;50.080;20.040;2023-01-15T10:03:42;22.20;40.30
54558;DHT22;40452;50.080;20.040;2023-01-15T10:09:05;22.20;40.30
54558;DHT22;40452;50.080;20.040;2023-01-15T10:11:41;22.20;40.30
54558;DHT22;40452;50.080;20.040;2023-01-15T10:17:49;22.20;40.00
54558;DHT22;40452;50.080;20.040;2023-01-15T10:26:01;22.20;40.30
54558;DHT22;40452;50.080;20.040;2023-01-15T10:37:17;22.30;40.10
54558;DHT22;40452;50.080;20.040;2023-01-15T10:42:31;22.30;40.60
54558;DHT22;40452;50.080;20.040;2023-01-15T10:45:22;22.40;40.40
54558;DHT22;40452;50.080;20.040;2023-01-15T10:50:26;22.30;40.60
54558;DHT22;40452;50.080;20.040;2023-01-15T10:53:18;22.30;40.70
54558;DHT22;40452;50.080;20.040;2023-01-15T10:55:56;22.40;40.70
54558;DHT22;40452;50.080;20.040;2023-01-15T10:58:42;22.40;40.90
54558;DHT22;40452;50.080;20.040;2023-01-15T11:01:17;22.40;41.50
54558;DHT22;40452;50.080;20.040;2023-01-15T11:03:46;22.40;40.80
54558;DHT22;40452;50.080;20.040;2023-01-15T11:06:16;22.40;40.50
54558;DHT22;40452;50.080;20.040;2023-01-15T11:08:48;22.40;40.50
54558;DHT22;40452;50.080;20.040;2023-01-15T11:11:16;22.40;40.60
54558;DHT22;40452;50.080;20.040;2023-01-15T11:13:52;22.30;40.80
54558;DHT22;40452;50.080;20.040;2023-01-15T11:16:37;22.30;40.80
54558;DHT22;40452;50.080;20.040;2023-01-15T11:19:31;22.40;40.80
54558;DHT22;40452;50.080;20.040;2023-01-15T11:22:12;22.30;40.60
54558;DHT22;40452;50.080;20.040;2023-01-15T11:25:04;22.40;40.40
54558;DHT22;40452;50.080;20.040;2023-01-15T11:27:34;22.40;40.40
54558;DHT22;40452;50.080;20.040;2023-01-15T11:30:01;22.40;40.40
54558;DHT22;40452;50.080;20.040;2023-01-15T11:32:30;22.40;40.50
54558;DHT22;40452;50.080;20.040;2023-01-15T11:35:01;22.40;40.60
54558;DHT22;40452;50.080;20.040;2023-01-15T11:37:28;22.20;34.10
54558;DHT22;40452;50.080;20.040;2023-01-15T11:39:58;21.80;32.70
54558;DHT22;40452;50.080;20.040;2023-01-15T11:42:31;21.40;32.40
54558;DHT22;40452;50.080;20.040;2023-01-15T11:45:18;21.10;33.60
54558;DHT22;40452;50.080;20.040;2023-01-15T11:48:21;20.80;34.50
54558;DHT22;40452;50.080;20.040;2023-01-15T11:51:14;20.60;35.10
54558;DHT22;40452;50.080;20.040;2023-01-15T11:53:49;20.40;35.70
54558;DHT22;40452;50.080;20.040;2023-01-15T11:56:19;20.30;35.70
54558;DHT22;40452;50.080;20.040;2023-01-15T11:58:48;20.30;35.20
54558;DHT22;40452;50.080;20.040;2023-01-15T12:01:38;20.10;35.70
54558;DHT22;40452;50.080;20.040;2023-01-15T12:04:21;20.10;35.30
54558;DHT22;40452;50.080;20.040;2023-01-15T12:06:48;20.00;35.10
54558;DHT22;40452;50.080;20.040;2023-01-15T12:12:39;19.90;35.70
54558;DHT22;40452;50.080;20.040;2023-01-15T12:20:53;20.40;43.40
54558;DHT22;40452;50.080;20.040;2023-01-15T12:36:40;21.50;41.20
54558;DHT22;40452;50.080;20.040;2023-01-15T12:39:17;21.60;41.00
54558;DHT22;40452;50.080;20.040;2023-01-15T12:41:46;21.70;40.90
54558;DHT22;40452;50.080;20.040;2023-01-15T12:44:47;21.80;40.70
54558;DHT22;40452;50.080;20.040;2023-01-15T12:52:50;22.10;40.60
54558;DHT22;40452;50.080;20.040;2023-01-15T12:55:22;22.20;40.50
54558;DHT22;40452;50.080;20.040;2023-01-15T12:57:54;22.20;40.30
54558;DHT22;40452;50.080;20.040;2023-01-15T13:00:28;22.30;40.20
54558;DHT22;40452;50.080;20.040;2023-01-15T13:03:27;22.40;40.10
54558;DHT22;40452;50.080;20.040;2023-01-15T13:06:03;22.40;40.00
54558;DHT22;40452;50.080;20.040;2023-01-15T13:08:42;22.50;39.90
54558;DHT22;40452;50.080;20.040;2023-01-15T13:11:11;22.50;39.90
54558;DHT22;40452;50.080;20.040;2023-01-15T13:13:39;22.50;40.40
54558;DHT22;40452;50.080;20.040;2023-01-15T13:16:11;22.50;40.90
54558;DHT22;40452;50.080;20.040;2023-01-15T13:21:17;22.60;40.70
54558;DHT22;40452;50.080;20.040;2023-01-15T13:26:40;22.60;40.50
54558;DHT22;40452;50.080;20.040;2023-01-15T13:32:00;22.70;40.40
54558;DHT22;40452;50.080;20.040;2023-01-15T13:39:56;22.80;40.20
54558;DHT22;40452;50.080;20.040;2023-01-15T13:42:24;22.70;40.20
54558;DHT22;40452;50.080;20.040;2023-01-15T13:45:20;22.80;40.70
54558;DHT22;40452;50.080;20.040;2023-01-15T13:47:48;22.80;43.10
54558;DHT22;40452;50.080;20.040;2023-01-15T13:50:32;22.80;44.40
54558;DHT22;40452;50.080;20.040;2023-01-15T13:52:58;22.90;45.20
54558;DHT22;40452;50.080;20.040;2023-01-15T13:55:28;22.90;45.20
54558;DHT22;40452;50.080;20.040;2023-01-15T13:57:55;22.80;44.80
54558;DHT22;40452;50.080;20.040;2023-01-15T14:00:33;22.90;44.90
54558;DHT22;40452;50.080;20.040;2023-01-15T14:03:02;22.80;45.00
54558;DHT22;40452;50.080;20.040;2023-01-15T14:05:33;22.80;44.90
54558;DHT22;40452;50.080;20.040;2023-01-15T14:08:00;22.80;44.90
54558;DHT22;40452;50.080;20.040;2023-01-15T14:10:35;22.90;44.70
54558;DHT22;40452;50.080;20.040;2023-01-15T14:24:28;23.00;43.80
54558;DHT22;40452;50.080;20.040;2023-01-15T14:27:12;23.00;43.80
54558;DHT22;40452;50.080;20.040;2023-01-15T14:35:47;23.00;43.50
54558;DHT22;40452;50.080;20.040;2023-01-15T14:38:18;23.00;43.40
54558;DHT22;40452;50.080;20.040;2023-01-15T14:41:02;23.00;43.30
54558;DHT22;40452;50.080;20.040;2023-01-15T14:43:33;23.00;43.30
54558;DHT22;40452;50.080;20.040;2023-01-15T14:46:20;23.00;43.20
54558;DHT22;40452;50.080;20.040;2023-01-15T14:48:48;23.00;43.00
54558;DHT22;40452;50.080;20.040;2023-01-15T14:51:17;23.00;43.00
54558;DHT22;40452;50.080;20.040;2023-01-15T14:54:00;23.00;42.90
54558;DHT22;40452;50.080;20.040;2023-01-15T14:56:35;22.90;42.90
54558;DHT22;40452;50.080;20.040;2023-01-15T15:05:36;22.80;43.00
54558;DHT22;40452;50.080;20.040;2023-01-15T15:08:03;22.70;43.10
54558;DHT22;40452;50.080;20.040;2023-01-15T15:10:36;22.70;43.10
54558;DHT22;40452;50.080;20.040;2023-01-15T15:18:33;22.70;44.00
54558;DHT22;40452;50.080;20.040;2023-01-15T15:21:20;22.80;43.10
54558;DHT22;40452;50.080;20.040;2023-01-15T15:26:30;23.00;42.80
54558;DHT22;40452;50.080;20.040;2023-01-15T15:29:00;23.00;42.60
54558;DHT22;40452;50.080;20.040;2023-01-15T15:31:47;23.00;42.60
54558;DHT22;40452;50.080;20.040;2023-01-15T15:34:23;23.10;42.70
54558;DHT22;40452;50.080;20.040;2023-01-15T15:37:26;23.10;42.60
54558;DHT22;40452;50.080;20.040;2023-01-15T15:40:01;23.10;42.50
54558;DHT22;40452;50.080;20.040;2023-01-15T15:45:53;23.30;42.30
54558;DHT22;40452;50.080;20.040;2023-01-15T15:48:41;23.40;42.00
54558;DHT22;40452;50.080;20.040;2023-01-15T15:51:43;23.40;41.90
54558;DHT22;40452;50.080;20.040;2023-01-15T15:54:15;23.40;42.00
54558;DHT22;40452;50.080;20.040;2023-01-15T15:57:06;23.40;42.00
54558;DHT22;40452;50.080;20.040;2023-01-15T15:59:44;23.40;42.10
54558;DHT22;40452;50.080;20.040;2023-01-15T16:04:49;23.40;42.00
54558;DHT22;40452;50.080;20.040;2023-01-15T16:07:23;23.30;42.10
54558;DHT22;40452;50.080;20.040;2023-01-15T16:09:58;23.40;42.30
54558;DHT22;40452;50.080;20.040;2023-01-15T16:12:32;23.30;42.90
54558;DHT22;40452;50.080;20.040;2023-01-15T16:14:59;23.30;42.30
54558;DHT22;40452;50.080;20.040;2023-01-15T16:17:30;23.30;42.20
54558;DHT22;40452;50.080;20.040;2023-01-15T16:19:56;23.30;42.30
54558;DHT22;40452;50.080;20.040;2023-01-15T16:22:23;23.30;42.40
54558;DHT22;40452;50.080;20.040;2023-01-15T16:24:53;23.30;42.40
54558;DHT22;40452;50.080;20.040;2023-01-15T16:27:25;23.20;42.50
54558;DHT22;40452;50.080;20.040;2023-01-15T16:29:55;23.30;42.40
54558;DHT22;40452;50.080;20.040;2023-01-15T16:32:28;23.30;42.40
54558;DHT22;40452;50.080;20.040;2023-01-15T16:35:06;23.40;42.60
54558;DHT22;40452;50.080;20.040;2023-01-15T16:37:32;23.40;42.40
54558;DHT22;40452;50.080;20.040;2023-01-15T16:40:02;23.50;42.40
54558;DHT22;40452;50.080;20.040;2023-01-15T16:44:59;23.50;42.40
54558;DHT22;40452;50.080;20.040;2023-01-15T16:47:28;23.40;42.50
54558;DHT22;40452;50.080;20.040;2023-01-15T16:53:27;23.30;42.50
54558;DHT22;40452;50.080;20.040;2023-01-15T16:55:51;23.20;42.70
54558;DHT22;40452;50.080;20.040;2023-01-15T16:58:31;23.10;42.70
54558;DHT22;40452;50.080;20.040;2023-01-15T17:01:31;23.10;43.40
54558;DHT22;40452;50.080;20.040;2023-01-15T17:04:31;22.90;43.10
54558;DHT22;40452;50.080;20.040;2023-01-15T17:07:07;22.80;43.30
54558;DHT22;40452;50.080;20.040;2023-01-15T17:09:57;22.80;43.50
54558;DHT22;40452;50.080;20.040;2023-01-15T17:12:44;22.80;43.70
54558;DHT22;40452;50.080;20.040;2023-01-15T17:17:51;22.80;44.10
54558;DHT22;40452;50.080;20.040;2023-01-15T17:20:34;22.80;44.30
54558;DHT22;40452;50.080;20.040;2023-01-15T17:23:17;22.80;44.60
54558;DHT22;40452;50.080;20.040;2023-01-15T17:25:48;22.80;44.20
54558;DHT22;40452;50.080;20.040;2023-01-15T17:28:22;22.70;44.30
54558;DHT22;40452;50.080;20.040;2023-01-15T17:31:01;22.70;44.30
54558;DHT22;40452;50.080;20.040;2023-01-15T17:33:29;22.70;44.10
54558;DHT22;40452;50.080;20.040;2023-01-15T17:36:05;22.70;44.00
54558;DHT22;40452;50.080;20.040;2023-01-15T17:38:39;22.80;44.00
54558;DHT22;40452;50.080;20.040;2023-01-15T17:41:07;22.80;43.80
54558;DHT22;40452;50.080;20.040;2023-01-15T17:43:38;22.90;43.70
54558;DHT22;40452;50.080;20.040;2023-01-15T17:46:04;22.90;43.50
54558;DHT22;40452;50.080;20.040;2023-01-15T17:48:30;23.00;43.50
54558;DHT22;40452;50.080;20.040;2023-01-15T17:50:59;23.00;43.30
54558;DHT22;40452;50.080;20.040;2023-01-15T17:53:32;23.10;43.40
54558;DHT22;40452;50.080;20.040;2023-01-15T17:56:00;23.10;43.20
54558;DHT22;40452;50.080;20.040;2023-01-15T17:58:45;23.10;43.10
54558;DHT22;40452;50.080;20.040;2023-01-15T18:01:31;23.20;43.00
54558;DHT22;40452;50.080;20.040;2023-01-15T18:04:21;23.30;42.80
54558;DHT22;40452;50.080;20.040;2023-01-15T18:07:07;23.40;42.60
54558;DHT22;40452;50.080;20.040;2023-01-15T18:09:34;23.50;42.50
54558;DHT22;40452;50.080;20.040;2023-01-15T18:12:00;23.60;42.10
54558;DHT22;40452;50.080;20.040;2023-01-15T18:14:25;23.70;41.90
54558;DHT22;40452;50.080;20.040;2023-01-15T18:16:51;23.70;42.10
54558;DHT22;40452;50.080;20.040;2023-01-15T18:19:17;23.70;40.30
54558;DHT22;40452;50.080;20.040;2023-01-15T18:21:42;23.70;41.70
54558;DHT22;40452;50.080;20.040;2023-01-15T18:24:09;23.70;41.70
54558;DHT22;40452;50.080;20.040;2023-01-15T18:26:37;23.60;41.80
54558;DHT22;40452;50.080;20.040;2023-01-15T18:29:04;23.50;42.70
54558;DHT22;40452;50.080;20.040;2023-01-15T18:31:30;23.50;42.10
54558;DHT22;40452;50.080;20.040;2023-01-15T18:33:55;23.40;42.30
54558;DHT22;40452;50.080;20.040;2023-01-15T18:36:21;23.40;42.40
54558;DHT22;40452;50.080;20.040;2023-01-15T18:38:47;23.30;42.40
54558;DHT22;40452;50.080;20.040;2023-01-15T18:41:18;23.30;42.50
54558;DHT22;40452;50.080;20.040;2023-01-15T18:44:04;23.30;42.60
54558;DHT22;40452;50.080;20.040;2023-01-15T18:46:52;23.30;42.60
54558;DHT22;40452;50.080;20.040;2023-01-15T18:49:18;23.30;42.70
54558;DHT22;40452;50.080;20.040;2023-01-15T18:51:44;23.30;42.80
54558;DHT22;40452;50.080;20.040;2023-01-15T18:54:29;23.30;42.80
54558;DHT22;40452;50.080;20.040;2023-01-15T18:56:55;23.20;42.70
54558;DHT22;40452;50.080;20.040;2023-01-15T18:59:20;23.20;42.70
54558;DHT22;40452;50.080;20.040;2023-01-15T19:01:46;23.20;43.00
54558;DHT22;40452;50.080;20.040;2023-01-15T19:04:11;23.20;42.90
54558;DHT22;40452;50.080;20.040;2023-01-15T19:06:38;23.10;43.00
54558;DHT22;40452;50.080;20.040;2023-01-15T19:09:04;23.10;43.10
54558;DHT22;40452;50.080;20.040;2023-01-15T19:11:30;23.20;43.10
54558;DHT22;40452;50.080;20.040;2023-01-15T19:13:56;23.30;42.80
54558;DHT22;40452;50.080;20.040;2023-01-15T19:16:40;23.40;42.90
54558;DHT22;40452;50.080;20.040;2023-01-15T19:19:25;23.40;42.60
54558;DHT22;40452;50.080;20.040;2023-01-15T19:21:51;23.40;42.60
54558;DHT22;40452;50.080;20.040;2023-01-15T19:24:37;23.40;42.60
54558;DHT22;40452;50.080;20.040;2023-01-15T19:27:04;23.40;42.40
54558;DHT22;40452;50.080;20.040;2023-01-15T19:29:30;23.50;42.30
54558;DHT22;40452;50.080;20.040;2023-01-15T19:31:55;23.50;42.20
54558;DHT22;40452;50.080;20.040;2023-01-15T19:34:21;23.50;42.20
54558;DHT22;40452;50.080;20.040;2023-01-15T19:36:47;23.50;42.30
54558;DHT22;40452;50.080;20.040;2023-01-15T19:39:13;23.50;42.50
54558;DHT22;40452;50.080;20.040;2023-01-15T19:41:38;23.40;42.50
54558;DHT22;40452;50.080;20.040;2023-01-15T19:44:23;23.40;42.60
54558;DHT22;40452;50.080;20.040;2023-01-15T19:47:11;23.40;42.60
54558;DHT22;40452;50.080;20.040;2023-01-15T19:49:55;23.40;42.60
54558;DHT22;40452;50.080;20.040;2023-01-15T19:52:40;23.40;42.80
54558;DHT22;40452;50.080;20.040;2023-01-15T19:55:08;23.40;42.90
54558;DHT22;40452;50.080;20.040;2023-01-15T19:57:38;23.40;42.80
54558;DHT22;40452;50.080;20.040;2023-01-15T20:00:05;23.40;42.80
54558;DHT22;40452;50.080;20.040;2023-01-15T20:02:34;23.40;43.60
54558;DHT22;40452;50.080;20.040;2023-01-15T20:05:01;23.40;43.00
54558;DHT22;40452;50.080;20.040;2023-01-15T20:07:27;23.40;43.00
54558;DHT22;40452;50.080;20.040;2023-01-15T20:09:52;23.40;43.00
54558;DHT22;40452;50.080;20.040;2023-01-15T20:12:18;23.40;42.90
54558;DHT22;40452;50.080;20.040;2023-01-15T20:15:02;23.40;42.90
54558;DHT22;40452;50.080;20.040;2023-01-15T20:17:28;23.40;43.00
54558;DHT22;40452;50.080;20.040;2023-01-15T20:19:54;23.30;43.10
54558;DHT22;40452;50.080;20.040;2023-01-15T20:22:20;23.20;43.20
54558;DHT22;40452;50.080;20.040;2023-01-15T20:24:46;23.20;43.40
